sensor_id;sensor_type;location;lat;lon;timestamp;P1;P2;P0
62631;PMS5003;48703;51.248;-0.546;2022-12-07T00:00:45;34.55;31.81;
62631;PMS5003;48703;51.248;-0.546;2022-12-07T00:03:46;35.04;30.91;
62631;PMS5003;48703;51.248;-0.546;2022-12-07T00:06:50;38.47;32.51;
62631;PMS5003;48703;51.248;-0.546;2022-12-07T00:09:49;36.84;31.60;
62631;PMS5003;48703;51.248;-0.546;2022-12-07T00:12:51;34.80;30.00;
62631;PMS5003;48703;51.248;-0.546;2022-12-07T00:15:53;27.84;24.04;
62631;PMS5003;48703;51.248;-0.546;2022-12-07T00:18:54;27.36;24.55;
62631;PMS5003;48703;51.248;-0.546;2022-12-07T00:21:55;31.83;27.07;
62631;PMS5003;48703;51.248;-0.546;2022-12-07T00:24:57;27.93;25.62;
62631;PMS5003;48703;51.248;-0.546;2022-12-07T00:27:59;33.10;30.35;
62631;PMS5003;48703;51.248;-0.546;2022-12-07T00:31:01;31.28;27.41;
62631;PMS5003;48703;51.248;-0.546;2022-12-07T00:34:01;32.07;28.96;
62631;PMS5003;48703;51.248;-0.546;2022-12-07T00:37:02;37.04;31.81;
62631;PMS5003;48703;51.248;-0.546;2022-12-07T00:40:05;29.56;27.04;
62631;PMS5003;48703;51.248;-0.546;2022-12-07T00:43:06;33.38;27.22;
62631;PMS5003;48703;51.248;-0.546;2022-12-07T00:46:08;31.97;29.42;
62631;PMS5003;48703;51.248;-0.546;2022-12-07T00:49:09;28.45;25.70;
62631;PMS5003;48703;51.248;-0.546;2022-12-07T00:52:10;33.20;28.55;
62631;PMS5003;48703;51.248;-0.546;2022-12-07T00:55:11;34.28;27.49;
62631;PMS5003;48703;51.248;-0.546;2022-12-07T00:58:13;29.78;26.87;
62631;PMS5003;48703;51.248;-0.546;2022-12-07T01:01:14;28.89;24.97;
62631;PMS5003;48703;51.248;-0.546;2022-12-07T01:04:15;33.78;29.60;
62631;PMS5003;48703;51.248;-0.546;2022-12-07T01:07:16;32.28;29.99;
62631;PMS5003;48703;51.248;-0.546;2022-12-07T01:10:18;36.03;31.69;
62631;PMS5003;48703;51.248;-0.546;2022-12-07T01:13:19;34.96;30.74;
62631;PMS5003;48703;51.248;-0.546;2022-12-07T01:16:24;33.46;28.86;
62631;PMS5003;48703;51.248;-0.546;2022-12-07T01:19:21;31.45;28.35;
62631;PMS5003;48703;51.248;-0.546;2022-12-07T01:22:22;30.62;28.49;
62631;PMS5003;48703;51.248;-0.546;2022-12-07T01:25:23;30.77;27.86;
62631;PMS5003;48703;51.248;-0.546;2022-12-07T01:28:25;32.44;28.60;
62631;PMS5003;48703;51.248;-0.546;2022-12-07T01:31:26;31.35;26.54;
62631;PMS5003;48703;51.248;-0.546;2022-12-07T01:34:27;33.41;28.84;
62631;PMS5003;48703;51.248;-0.546;2022-12-07T01:37:28;32.83;28.59;
62631;PMS5003;48703;51.248;-0.546;2022-12-07T01:40:28;31.71;28.01;
62631;PMS5003;48703;51.248;-0.546;2022-12-07T01:43:29;31.22;27.87;
62631;PMS5003;48703;51.248;-0.546;2022-12-07T01:45:47;30.70;27.88;
62631;PMS5003;48703;51.248;-0.546;2022-12-07T01:48:32;28.59;25.13;
62631;PMS5003;48703;51.248;-0.546;2022-12-07T01:51:33;29.10;26.75;
62631;PMS5003;48703;51.248;-0.546;2022-12-07T01:54:34;31.72;28.12;
62631;PMS5003;48703;51.248;-0.546;2022-12-07T01:57:36;30.17;25.01;
62631;PMS5003;48703;51.248;-0.546;2022-12-07T02:00:36;27.41;24.78;
62631;PMS5003;48703;51.248;-0.546;2022-12-07T02:03:38;30.65;25.75;
62631;PMS5003;48703;51.248;-0.546;2022-12-07T02:06:37;25.55;21.93;
62631;PMS5003;48703;51.248;-0.546;2022-12-07T02:09:40;23.94;20.07;
62631;PMS5003;48703;51.248;-0.546;2022-12-07T02:12:41;24.03;21.28;
62631;PMS5003;48703;51.248;-0.546;2022-12-07T02:15:47;20.53;17.66;
62631;PMS5003;48703;51.248;-0.546;2022-12-07T02:18:47;21.22;19.65;
62631;PMS5003;48703;51.248;-0.546;2022-12-07T02:21:46;22.53;19.68;
62631;PMS5003;48703;51.248;-0.546;2022-12-07T02:24:48;22.28;18.62;
62631;PMS5003;48703;51.248;-0.546;2022-12-07T02:27:48;22.45;18.97;
62631;PMS5003;48703;51.248;-0.546;2022-12-07T02:30:49;19.11;16.26;
62631;PMS5003;48703;51.248;-0.546;2022-12-07T02:33:51;23.46;20.66;
62631;PMS5003;48703;51.248;-0.546;2022-12-07T02:36:52;25.84;22.59;
62631;PMS5003;48703;51.248;-0.546;2022-12-07T02:39:54;21.03;19.33;
62631;PMS5003;48703;51.248;-0.546;2022-12-07T02:42:57;24.83;21.71;
62631;PMS5003;48703;51.248;-0.546;2022-12-07T02:45:57;25.65;22.07;
62631;PMS5003;48703;51.248;-0.546;2022-12-07T02:48:57;20.40;20.11;
62631;PMS5003;48703;51.248;-0.546;2022-12-07T02:51:59;23.61;20.78;
62631;PMS5003;48703;51.248;-0.546;2022-12-07T02:55:01;21.47;19.71;
62631;PMS5003;48703;51.248;-0.546;2022-12-07T02:58:06;22.65;20.41;
62631;PMS5003;48703;51.248;-0.546;2022-12-07T03:01:05;23.99;22.36;
62631;PMS5003;48703;51.248;-0.546;2022-12-07T03:04:09;24.41;21.65;
62631;PMS5003;48703;51.248;-0.546;2022-12-07T03:07:11;23.90;22.01;
62631;PMS5003;48703;51.248;-0.546;2022-12-07T03:10:14;24.57;21.24;
62631;PMS5003;48703;51.248;-0.546;2022-12-07T03:13:12;27.65;23.09;
62631;PMS5003;48703;51.248;-0.546;2022-12-07T03:16:13;23.61;19.97;
62631;PMS5003;48703;51.248;-0.546;2022-12-07T03:19:15;24.01;21.62;
62631;PMS5003;48703;51.248;-0.546;2022-12-07T03:22:15;25.16;21.03;
62631;PMS5003;48703;51.248;-0.546;2022-12-07T03:25:17;24.06;20.17;
62631;PMS5003;48703;51.248;-0.546;2022-12-07T03:28:18;22.16;20.91;
62631;PMS5003;48703;51.248;-0.546;2022-12-07T03:31:20;24.25;20.64;
62631;PMS5003;48703;51.248;-0.546;2022-12-07T03:34:21;24.74;21.51;
62631;PMS5003;48703;51.248;-0.546;2022-12-07T03:37:22;23.76;22.49;
62631;PMS5003;48703;51.248;-0.546;2022-12-07T03:40:24;23.71;19.99;
62631;PMS5003;48703;51.248;-0.546;2022-12-07T03:43:24;21.39;20.46;
62631;PMS5003;48703;51.248;-0.546;2022-12-07T03:46:27;25.01;22.99;
62631;PMS5003;48703;51.248;-0.546;2022-12-07T03:49:27;24.57;20.67;
62631;PMS5003;48703;51.248;-0.546;2022-12-07T03:52:28;25.51;22.59;
62631;PMS5003;48703;51.248;-0.546;2022-12-07T03:55:29;26.62;24.44;
62631;PMS5003;48703;51.248;-0.546;2022-12-07T03:58:30;23.57;20.94;
62631;PMS5003;48703;51.248;-0.546;2022-12-07T04:01:31;24.37;22.12;
62631;PMS5003;48703;51.248;-0.546;2022-12-07T04:04:32;23.00;20.63;
62631;PMS5003;48703;51.248;-0.546;2022-12-07T04:07:34;21.34;18.83;
62631;PMS5003;48703;51.248;-0.546;2022-12-07T04:10:35;23.88;21.81;
62631;PMS5003;48703;51.248;-0.546;2022-12-07T04:13:37;25.66;21.73;
62631;PMS5003;48703;51.248;-0.546;2022-12-07T04:16:38;24.43;21.23;
62631;PMS5003;48703;51.248;-0.546;2022-12-07T04:19:39;24.13;21.44;
62631;PMS5003;48703;51.248;-0.546;2022-12-07T04:22:40;25.65;22.91;
62631;PMS5003;48703;51.248;-0.546;2022-12-07T04:25:42;26.29;22.60;
62631;PMS5003;48703;51.248;-0.546;2022-12-07T04:28:43;25.06;22.78;
62631;PMS5003;48703;51.248;-0.546;2022-12-07T04:31:45;27.20;23.96;
62631;PMS5003;48703;51.248;-0.546;2022-12-07T04:34:46;26.86;23.26;
62631;PMS5003;48703;51.248;-0.546;2022-12-07T04:37:48;26.14;24.16;
62631;PMS5003;48703;51.248;-0.546;2022-12-07T04:40:49;26.00;23.26;
62631;PMS5003;48703;51.248;-0.546;2022-12-07T04:43:51;25.00;21.93;
62631;PMS5003;48703;51.248;-0.546;2022-12-07T04:46:52;27.01;24.36;
62631;PMS5003;48703;51.248;-0.546;2022-12-07T04:49:53;27.76;25.64;
62631;PMS5003;48703;51.248;-0.546;2022-12-07T04:52:54;27.68;24.78;
62631;PMS5003;48703;51.248;-0.546;2022-12-07T04:55:56;29.77;25.33;
62631;PMS5003;48703;51.248;-0.546;2022-12-07T04:58:58;26.56;24.87;
62631;PMS5003;48703;51.248;-0.546;2022-12-07T05:01:59;28.39;25.36;
62631;PMS5003;48703;51.248;-0.546;2022-12-07T05:05:00;26.54;23.24;
62631;PMS5003;48703;51.248;-0.546;2022-12-07T05:08:02;29.46;26.90;
62631;PMS5003;48703;51.248;-0.546;2022-12-07T05:11:03;27.99;25.37;
62631;PMS5003;48703;51.248;-0.546;2022-12-07T05:14:05;29.25;26.25;
62631;PMS5003;48703;51.248;-0.546;2022-12-07T05:17:05;27.99;24.33;
62631;PMS5003;48703;51.248;-0.546;2022-12-07T05:20:08;29.84;26.59;
62631;PMS5003;48703;51.248;-0.546;2022-12-07T05:23:10;29.71;24.94;
62631;PMS5003;48703;51.248;-0.546;2022-12-07T05:26:11;29.65;26.62;
62631;PMS5003;48703;51.248;-0.546;2022-12-07T05:29:13;28.32;25.35;
62631;PMS5003;48703;51.248;-0.546;2022-12-07T05:32:14;29.68;26.71;
62631;PMS5003;48703;51.248;-0.546;2022-12-07T05:35:16;27.01;25.35;
62631;PMS5003;48703;51.248;-0.546;2022-12-07T05:38:17;31.45;26.06;
62631;PMS5003;48703;51.248;-0.546;2022-12-07T05:41:19;30.96;28.23;
62631;PMS5003;48703;51.248;-0.546;2022-12-07T05:44:20;29.65;26.04;
62631;PMS5003;48703;51.248;-0.546;2022-12-07T05:47:21;30.26;27.12;
62631;PMS5003;48703;51.248;-0.546;2022-12-07T05:50:22;30.26;28.00;
62631;PMS5003;48703;51.248;-0.546;2022-12-07T05:53:24;31.01;26.34;
62631;PMS5003;48703;51.248;-0.546;2022-12-07T05:56:25;25.49;23.94;
62631;PMS5003;48703;51.248;-0.546;2022-12-07T05:59:27;27.51;23.74;
62631;PMS5003;48703;51.248;-0.546;2022-12-07T06:02:28;25.93;23.91;
62631;PMS5003;48703;51.248;-0.546;2022-12-07T06:05:29;34.65;27.58;
62631;PMS5003;48703;51.248;-0.546;2022-12-07T06:08:30;30.30;27.78;
62631;PMS5003;48703;51.248;-0.546;2022-12-07T06:11:31;31.90;27.93;
62631;PMS5003;48703;51.248;-0.546;2022-12-07T06:14:34;29.41;25.46;
62631;PMS5003;48703;51.248;-0.546;2022-12-07T06:17:35;29.12;26.67;
62631;PMS5003;48703;51.248;-0.546;2022-12-07T06:20:37;31.01;28.49;
62631;PMS5003;48703;51.248;-0.546;2022-12-07T06:23:38;30.39;27.51;
62631;PMS5003;48703;51.248;-0.546;2022-12-07T06:26:39;29.50;26.53;
62631;PMS5003;48703;51.248;-0.546;2022-12-07T06:29:40;29.28;26.59;
62631;PMS5003;48703;51.248;-0.546;2022-12-07T06:32:41;28.93;23.96;
62631;PMS5003;48703;51.248;-0.546;2022-12-07T06:35:43;27.09;23.65;
62631;PMS5003;48703;51.248;-0.546;2022-12-07T06:38:44;23.87;21.51;
62631;PMS5003;48703;51.248;-0.546;2022-12-07T06:41:46;23.10;21.54;
62631;PMS5003;48703;51.248;-0.546;2022-12-07T06:44:48;26.30;22.49;
62631;PMS5003;48703;51.248;-0.546;2022-12-07T06:47:48;26.18;23.37;
62631;PMS5003;48703;51.248;-0.546;2022-12-07T06:50:50;26.20;21.94;
62631;PMS5003;48703;51.248;-0.546;2022-12-07T06:53:51;23.17;22.14;
62631;PMS5003;48703;51.248;-0.546;2022-12-07T06:56:52;21.86;19.72;
62631;PMS5003;48703;51.248;-0.546;2022-12-07T06:59:54;19.81;18.62;
62631;PMS5003;48703;51.248;-0.546;2022-12-07T07:02:56;21.93;18.57;
62631;PMS5003;48703;51.248;-0.546;2022-12-07T07:05:57;19.73;17.49;
62631;PMS5003;48703;51.248;-0.546;2022-12-07T07:08:59;22.29;20.48;
62631;PMS5003;48703;51.248;-0.546;2022-12-07T07:12:00;22.96;20.76;
62631;PMS5003;48703;51.248;-0.546;2022-12-07T07:15:01;22.83;18.89;
62631;PMS5003;48703;51.248;-0.546;2022-12-07T07:18:02;22.42;19.46;
62631;PMS5003;48703;51.248;-0.546;2022-12-07T07:21:04;22.88;20.26;
62631;PMS5003;48703;51.248;-0.546;2022-12-07T07:24:06;22.73;19.80;
62631;PMS5003;48703;51.248;-0.546;2022-12-07T07:27:07;20.93;18.88;
62631;PMS5003;48703;51.248;-0.546;2022-12-07T07:30:09;25.25;22.34;
62631;PMS5003;48703;51.248;-0.546;2022-12-07T07:33:11;24.72;20.17;
62631;PMS5003;48703;51.248;-0.546;2022-12-07T07:36:12;20.45;18.38;
62631;PMS5003;48703;51.248;-0.546;2022-12-07T07:39:13;21.94;20.87;
62631;PMS5003;48703;51.248;-0.546;2022-12-07T07:42:15;19.49;17.70;
62631;PMS5003;48703;51.248;-0.546;2022-12-07T07:45:16;19.29;18.07;
62631;PMS5003;48703;51.248;-0.546;2022-12-07T07:48:18;20.14;17.81;
62631;PMS5003;48703;51.248;-0.546;2022-12-07T07:51:20;23.93;21.00;
62631;PMS5003;48703;51.248;-0.546;2022-12-07T07:54:21;20.71;18.49;
62631;PMS5003;48703;51.248;-0.546;2022-12-07T07:57:21;21.96;19.30;
62631;PMS5003;48703;51.248;-0.546;2022-12-07T08:00:23;20.40;19.07;
62631;PMS5003;48703;51.248;-0.546;2022-12-07T08:03:24;19.69;18.01;
62631;PMS5003;48703;51.248;-0.546;2022-12-07T08:06:25;20.23;18.70;
62631;PMS5003;48703;51.248;-0.546;2022-12-07T08:09:27;21.13;17.81;
62631;PMS5003;48703;51.248;-0.546;2022-12-07T08:12:28;23.28;20.81;
62631;PMS5003;48703;51.248;-0.546;2022-12-07T08:15:31;25.62;22.51;
62631;PMS5003;48703;51.248;-0.546;2022-12-07T08:18:34;23.31;21.50;
62631;PMS5003;48703;51.248;-0.546;2022-12-07T08:21:34;24.46;22.07;
62631;PMS5003;48703;51.248;-0.546;2022-12-07T08:24:36;24.50;21.40;
62631;PMS5003;48703;51.248;-0.546;2022-12-07T08:27:37;26.93;23.14;
62631;PMS5003;48703;51.248;-0.546;2022-12-07T08:30:38;26.47;24.28;
62631;PMS5003;48703;51.248;-0.546;2022-12-07T08:33:39;27.91;25.21;
62631;PMS5003;48703;51.248;-0.546;2022-12-07T08:36:41;28.42;24.03;
62631;PMS5003;48703;51.248;-0.546;2022-12-07T08:39:42;28.43;24.99;
62631;PMS5003;48703;51.248;-0.546;2022-12-07T08:42:44;27.38;24.44;
62631;PMS5003;48703;51.248;-0.546;2022-12-07T08:45:45;27.33;23.83;
62631;PMS5003;48703;51.248;-0.546;2022-12-07T08:48:48;26.33;22.67;
62631;PMS5003;48703;51.248;-0.546;2022-12-07T08:51:48;26.41;23.77;
62631;PMS5003;48703;51.248;-0.546;2022-12-07T08:54:50;27.33;24.36;
62631;PMS5003;48703;51.248;-0.546;2022-12-07T08:57:51;29.20;26.91;
62631;PMS5003;48703;51.248;-0.546;2022-12-07T09:00:53;25.33;23.19;
62631;PMS5003;48703;51.248;-0.546;2022-12-07T09:03:55;29.38;25.63;
62631;PMS5003;48703;51.248;-0.546;2022-12-07T09:06:55;30.01;26.01;
62631;PMS5003;48703;51.248;-0.546;2022-12-07T09:09:57;31.30;27.00;
62631;PMS5003;48703;51.248;-0.546;2022-12-07T09:12:59;29.33;25.62;
62631;PMS5003;48703;51.248;-0.546;2022-12-07T09:16:01;31.84;26.78;
62631;PMS5003;48703;51.248;-0.546;2022-12-07T09:19:02;32.41;28.85;
62631;PMS5003;48703;51.248;-0.546;2022-12-07T09:22:03;28.75;26.40;
62631;PMS5003;48703;51.248;-0.546;2022-12-07T09:25:06;32.03;28.72;
62631;PMS5003;48703;51.248;-0.546;2022-12-07T09:28:07;32.01;28.78;
62631;PMS5003;48703;51.248;-0.546;2022-12-07T09:31:08;33.04;29.57;
62631;PMS5003;48703;51.248;-0.546;2022-12-07T09:34:09;30.10;27.23;
62631;PMS5003;48703;51.248;-0.546;2022-12-07T09:37:10;30.57;26.24;
62631;PMS5003;48703;51.248;-0.546;2022-12-07T09:40:12;34.70;31.48;
62631;PMS5003;48703;51.248;-0.546;2022-12-07T09:43:13;32.70;29.57;
62631;PMS5003;48703;51.248;-0.546;2022-12-07T09:46:14;35.22;32.09;
62631;PMS5003;48703;51.248;-0.546;2022-12-07T09:49:16;32.69;28.04;
62631;PMS5003;48703;51.248;-0.546;2022-12-07T09:52:19;31.39;27.93;
62631;PMS5003;48703;51.248;-0.546;2022-12-07T09:55:19;34.68;29.25;
62631;PMS5003;48703;51.248;-0.546;2022-12-07T09:58:20;33.87;29.93;
62631;PMS5003;48703;51.248;-0.546;2022-12-07T10:01:22;35.88;32.34;
62631;PMS5003;48703;51.248;-0.546;2022-12-07T10:04:23;31.29;26.88;
62631;PMS5003;48703;51.248;-0.546;2022-12-07T10:07:24;31.78;26.46;
62631;PMS5003;48703;51.248;-0.546;2022-12-07T10:10:26;32.29;27.41;
62631;PMS5003;48703;51.248;-0.546;2022-12-07T10:13:34;30.62;27.49;
62631;PMS5003;48703;51.248;-0.546;2022-12-07T10:16:31;30.55;26.06;
62631;PMS5003;48703;51.248;-0.546;2022-12-07T10:19:29;29.43;24.11;
62631;PMS5003;48703;51.248;-0.546;2022-12-07T10:22:30;29.84;26.00;
62631;PMS5003;48703;51.248;-0.546;2022-12-07T10:25:32;30.93;26.12;
62631;PMS5003;48703;51.248;-0.546;2022-12-07T10:28:33;27.94;25.60;
62631;PMS5003;48703;51.248;-0.546;2022-12-07T10:31:33;28.74;26.06;
62631;PMS5003;48703;51.248;-0.546;2022-12-07T10:34:34;31.28;27.50;
62631;PMS5003;48703;51.248;-0.546;2022-12-07T10:37:36;32.32;28.49;
62631;PMS5003;48703;51.248;-0.546;2022-12-07T10:40:36;31.57;29.04;
62631;PMS5003;48703;51.248;-0.546;2022-12-07T10:43:37;32.41;28.28;
62631;PMS5003;48703;51.248;-0.546;2022-12-07T10:46:43;33.77;29.30;
62631;PMS5003;48703;51.248;-0.546;2022-12-07T10:50:14;30.78;28.64;
62631;PMS5003;48703;51.248;-0.546;2022-12-07T10:52:45;31.07;29.30;
62631;PMS5003;48703;51.248;-0.546;2022-12-07T10:55:47;30.68;28.38;
62631;PMS5003;48703;51.248;-0.546;2022-12-07T10:58:47;30.72;27.78;
62631;PMS5003;48703;51.248;-0.546;2022-12-07T11:01:45;32.61;29.23;
62631;PMS5003;48703;51.248;-0.546;2022-12-07T11:04:49;31.81;27.79;
62631;PMS5003;48703;51.248;-0.546;2022-12-07T11:07:50;31.37;28.01;
62631;PMS5003;48703;51.248;-0.546;2022-12-07T11:10:51;32.86;28.59;
62631;PMS5003;48703;51.248;-0.546;2022-12-07T11:13:52;34.50;29.74;
62631;PMS5003;48703;51.248;-0.546;2022-12-07T11:16:52;32.47;29.53;
62631;PMS5003;48703;51.248;-0.546;2022-12-07T11:19:55;33.80;29.16;
62631;PMS5003;48703;51.248;-0.546;2022-12-07T11:22:55;33.60;29.84;
62631;PMS5003;48703;51.248;-0.546;2022-12-07T11:25:54;37.74;32.61;
62631;PMS5003;48703;51.248;-0.546;2022-12-07T11:29:00;32.66;28.44;
62631;PMS5003;48703;51.248;-0.546;2022-12-07T11:31:59;31.66;27.34;
62631;PMS5003;48703;51.248;-0.546;2022-12-07T11:35:00;34.41;32.47;
62631;PMS5003;48703;51.248;-0.546;2022-12-07T11:38:01;31.62;28.41;
62631;PMS5003;48703;51.248;-0.546;2022-12-07T11:41:02;31.01;29.28;
62631;PMS5003;48703;51.248;-0.546;2022-12-07T11:44:04;36.40;29.50;
62631;PMS5003;48703;51.248;-0.546;2022-12-07T11:47:05;34.15;28.96;
62631;PMS5003;48703;51.248;-0.546;2022-12-07T11:50:09;30.19;26.70;
62631;PMS5003;48703;51.248;-0.546;2022-12-07T11:53:10;33.90;28.63;
62631;PMS5003;48703;51.248;-0.546;2022-12-07T11:56:08;27.94;25.83;
62631;PMS5003;48703;51.248;-0.546;2022-12-07T11:59:11;33.72;29.41;
62631;PMS5003;48703;51.248;-0.546;2022-12-07T12:02:12;30.13;24.79;
62631;PMS5003;48703;51.248;-0.546;2022-12-07T12:05:13;31.65;27.43;
62631;PMS5003;48703;51.248;-0.546;2022-12-07T12:08:13;28.79;25.43;
62631;PMS5003;48703;51.248;-0.546;2022-12-07T12:11:17;27.94;24.76;
62631;PMS5003;48703;51.248;-0.546;2022-12-07T12:14:19;28.75;26.47;
62631;PMS5003;48703;51.248;-0.546;2022-12-07T12:17:23;26.29;22.83;
62631;PMS5003;48703;51.248;-0.546;2022-12-07T12:20:19;26.64;24.65;
62631;PMS5003;48703;51.248;-0.546;2022-12-07T12:23:20;25.44;22.57;
62631;PMS5003;48703;51.248;-0.546;2022-12-07T12:26:21;24.50;23.44;
62631;PMS5003;48703;51.248;-0.546;2022-12-07T12:29:23;24.51;22.41;
62631;PMS5003;48703;51.248;-0.546;2022-12-07T12:32:24;24.69;22.81;
62631;PMS5003;48703;51.248;-0.546;2022-12-07T12:35:29;23.03;20.09;
62631;PMS5003;48703;51.248;-0.546;2022-12-07T12:38:27;23.14;20.75;
62631;PMS5003;48703;51.248;-0.546;2022-12-07T12:42:05;25.41;22.63;
62631;PMS5003;48703;51.248;-0.546;2022-12-07T12:45:03;22.30;18.37;
62631;PMS5003;48703;51.248;-0.546;2022-12-07T12:48:01;22.33;19.36;
62631;PMS5003;48703;51.248;-0.546;2022-12-07T12:50:31;22.84;19.47;
62631;PMS5003;48703;51.248;-0.546;2022-12-07T12:53:31;22.16;19.07;
62631;PMS5003;48703;51.248;-0.546;2022-12-07T12:56:35;22.12;20.71;
62631;PMS5003;48703;51.248;-0.546;2022-12-07T12:59:34;20.51;18.59;
62631;PMS5003;48703;51.248;-0.546;2022-12-07T13:02:35;21.90;20.06;
62631;PMS5003;48703;51.248;-0.546;2022-12-07T13:05:36;20.70;19.46;
62631;PMS5003;48703;51.248;-0.546;2022-12-07T13:08:37;20.99;17.65;
62631;PMS5003;48703;51.248;-0.546;2022-12-07T13:11:40;15.20;13.87;
62631;PMS5003;48703;51.248;-0.546;2022-12-07T13:14:43;16.32;14.84;
62631;PMS5003;48703;51.248;-0.546;2022-12-07T13:17:58;15.07;13.80;
62631;PMS5003;48703;51.248;-0.546;2022-12-07T13:20:45;15.71;14.77;
62631;PMS5003;48703;51.248;-0.546;2022-12-07T13:23:52;16.19;14.13;
62631;PMS5003;48703;51.248;-0.546;2022-12-07T13:26:47;15.37;14.10;
62631;PMS5003;48703;51.248;-0.546;2022-12-07T13:29:49;14.37;12.71;
62631;PMS5003;48703;51.248;-0.546;2022-12-07T13:32:52;14.59;13.31;
62631;PMS5003;48703;51.248;-0.546;2022-12-07T13:35:53;13.63;13.20;
62631;PMS5003;48703;51.248;-0.546;2022-12-07T13:38:55;17.03;16.14;
62631;PMS5003;48703;51.248;-0.546;2022-12-07T13:41:56;14.00;13.06;
62631;PMS5003;48703;51.248;-0.546;2022-12-07T13:44:58;16.53;14.03;
62631;PMS5003;48703;51.248;-0.546;2022-12-07T13:47:59;17.16;14.43;
62631;PMS5003;48703;51.248;-0.546;2022-12-07T13:51:02;16.33;14.74;
62631;PMS5003;48703;51.248;-0.546;2022-12-07T13:54:08;15.84;14.32;
62631;PMS5003;48703;51.248;-0.546;2022-12-07T13:57:02;17.61;15.23;
62631;PMS5003;48703;51.248;-0.546;2022-12-07T14:00:06;16.03;14.58;
62631;PMS5003;48703;51.248;-0.546;2022-12-07T14:03:20;14.22;12.46;
62631;PMS5003;48703;51.248;-0.546;2022-12-07T14:06:17;13.80;11.70;
62631;PMS5003;48703;51.248;-0.546;2022-12-07T14:09:14;14.70;13.93;
62631;PMS5003;48703;51.248;-0.546;2022-12-07T14:12:11;14.74;12.81;
62631;PMS5003;48703;51.248;-0.546;2022-12-07T14:15:15;12.33;11.20;
62631;PMS5003;48703;51.248;-0.546;2022-12-07T14:18:24;13.01;11.21;
62631;PMS5003;48703;51.248;-0.546;2022-12-07T14:21:16;10.21;10.17;
62631;PMS5003;48703;51.248;-0.546;2022-12-07T14:24:18;9.64;8.79;
62631;PMS5003;48703;51.248;-0.546;2022-12-07T14:27:20;12.49;10.79;
62631;PMS5003;48703;51.248;-0.546;2022-12-07T14:30:20;9.78;9.42;
62631;PMS5003;48703;51.248;-0.546;2022-12-07T14:33:22;9.27;8.79;
62631;PMS5003;48703;51.248;-0.546;2022-12-07T14:36:24;11.03;9.60;
62631;PMS5003;48703;51.248;-0.546;2022-12-07T14:39:25;9.66;8.90;
62631;PMS5003;48703;51.248;-0.546;2022-12-07T14:42:28;10.07;8.86;
62631;PMS5003;48703;51.248;-0.546;2022-12-07T14:45:29;12.34;11.46;
62631;PMS5003;48703;51.248;-0.546;2022-12-07T14:48:31;9.76;8.63;
62631;PMS5003;48703;51.248;-0.546;2022-12-07T14:51:33;8.73;8.29;
62631;PMS5003;48703;51.248;-0.546;2022-12-07T14:54:34;9.81;8.75;
62631;PMS5003;48703;51.248;-0.546;2022-12-07T14:57:36;10.23;9.29;
62631;PMS5003;48703;51.248;-0.546;2022-12-07T15:00:38;11.04;9.64;
62631;PMS5003;48703;51.248;-0.546;2022-12-07T15:03:39;13.09;11.53;
62631;PMS5003;48703;51.248;-0.546;2022-12-07T15:06:41;11.54;10.56;
62631;PMS5003;48703;51.248;-0.546;2022-12-07T15:09:43;17.83;14.71;
62631;PMS5003;48703;51.248;-0.546;2022-12-07T15:12:45;14.77;13.47;
62631;PMS5003;48703;51.248;-0.546;2022-12-07T15:15:46;14.67;13.88;
62631;PMS5003;48703;51.248;-0.546;2022-12-07T15:18:47;16.12;14.22;
62631;PMS5003;48703;51.248;-0.546;2022-12-07T15:21:49;13.93;12.94;
62631;PMS5003;48703;51.248;-0.546;2022-12-07T15:24:51;14.53;13.20;
62631;PMS5003;48703;51.248;-0.546;2022-12-07T15:27:52;14.14;13.17;
62631;PMS5003;48703;51.248;-0.546;2022-12-07T15:30:54;15.83;13.79;
62631;PMS5003;48703;51.248;-0.546;2022-12-07T15:33:55;13.33;12.64;
62631;PMS5003;48703;51.248;-0.546;2022-12-07T15:36:57;17.11;14.74;
62631;PMS5003;48703;51.248;-0.546;2022-12-07T15:39:59;15.77;14.40;
62631;PMS5003;48703;51.248;-0.546;2022-12-07T15:43:00;12.91;12.27;
62631;PMS5003;48703;51.248;-0.546;2022-12-07T15:46:02;13.37;12.77;
62631;PMS5003;48703;51.248;-0.546;2022-12-07T15:49:03;14.26;13.25;
62631;PMS5003;48703;51.248;-0.546;2022-12-07T15:52:04;18.65;16.72;
62631;PMS5003;48703;51.248;-0.546;2022-12-07T15:55:06;15.23;13.51;
62631;PMS5003;48703;51.248;-0.546;2022-12-07T15:58:07;17.99;16.26;
62631;PMS5003;48703;51.248;-0.546;2022-12-07T16:01:10;21.91;18.37;
62631;PMS5003;48703;51.248;-0.546;2022-12-07T16:04:11;20.88;18.64;
62631;PMS5003;48703;51.248;-0.546;2022-12-07T16:07:14;21.14;19.66;
62631;PMS5003;48703;51.248;-0.546;2022-12-07T16:10:15;20.66;19.03;
62631;PMS5003;48703;51.248;-0.546;2022-12-07T16:13:16;20.01;18.52;
62631;PMS5003;48703;51.248;-0.546;2022-12-07T16:16:18;19.43;17.49;
62631;PMS5003;48703;51.248;-0.546;2022-12-07T16:19:19;20.46;18.57;
62631;PMS5003;48703;51.248;-0.546;2022-12-07T16:22:21;19.50;17.74;
62631;PMS5003;48703;51.248;-0.546;2022-12-07T16:25:22;19.89;18.51;
62631;PMS5003;48703;51.248;-0.546;2022-12-07T16:28:24;19.16;17.63;
62631;PMS5003;48703;51.248;-0.546;2022-12-07T16:31:27;18.46;17.16;
62631;PMS5003;48703;51.248;-0.546;2022-12-07T16:34:27;18.06;17.30;
62631;PMS5003;48703;51.248;-0.546;2022-12-07T16:37:29;20.34;17.97;
62631;PMS5003;48703;51.248;-0.546;2022-12-07T16:40:31;21.96;20.01;
62631;PMS5003;48703;51.248;-0.546;2022-12-07T16:43:32;19.30;18.71;
62631;PMS5003;48703;51.248;-0.546;2022-12-07T16:46:34;21.30;19.46;
62631;PMS5003;48703;51.248;-0.546;2022-12-07T16:49:35;23.72;21.10;
62631;PMS5003;48703;51.248;-0.546;2022-12-07T16:52:37;20.66;19.77;
62631;PMS5003;48703;51.248;-0.546;2022-12-07T16:55:39;24.16;22.19;
62631;PMS5003;48703;51.248;-0.546;2022-12-07T16:58:40;24.78;22.71;
62631;PMS5003;48703;51.248;-0.546;2022-12-07T17:01:42;21.54;18.73;
62631;PMS5003;48703;51.248;-0.546;2022-12-07T17:04:43;22.11;19.20;
62631;PMS5003;48703;51.248;-0.546;2022-12-07T17:07:45;21.03;19.79;
62631;PMS5003;48703;51.248;-0.546;2022-12-07T17:10:47;20.34;18.23;
62631;PMS5003;48703;51.248;-0.546;2022-12-07T17:13:49;21.59;19.48;
62631;PMS5003;48703;51.248;-0.546;2022-12-07T17:16:50;21.33;20.21;
62631;PMS5003;48703;51.248;-0.546;2022-12-07T17:19:52;30.74;26.51;
62631;PMS5003;48703;51.248;-0.546;2022-12-07T17:22:54;26.01;21.86;
62631;PMS5003;48703;51.248;-0.546;2022-12-07T17:25:55;25.91;23.06;
62631;PMS5003;48703;51.248;-0.546;2022-12-07T17:28:57;30.63;28.23;
62631;PMS5003;48703;51.248;-0.546;2022-12-07T17:31:58;29.62;26.65;
62631;PMS5003;48703;51.248;-0.546;2022-12-07T17:35:01;28.90;27.28;
62631;PMS5003;48703;51.248;-0.546;2022-12-07T17:38:02;31.09;29.88;
62631;PMS5003;48703;51.248;-0.546;2022-12-07T17:41:08;31.87;29.62;
62631;PMS5003;48703;51.248;-0.546;2022-12-07T17:44:07;35.88;32.52;
62631;PMS5003;48703;51.248;-0.546;2022-12-07T17:47:07;32.32;30.72;
62631;PMS5003;48703;51.248;-0.546;2022-12-07T17:50:10;36.54;32.94;
62631;PMS5003;48703;51.248;-0.546;2022-12-07T17:53:11;32.75;30.17;
62631;PMS5003;48703;51.248;-0.546;2022-12-07T17:56:12;31.49;29.51;